Flight Track Log - Related Links

Times and Time Zones

All times are in EDT time to prevent confusion due to time zone crossing. See the KAP6 flight status page for this flight to view local times or setup timezone preferences in your user account.

Time Position Orientation Groundspeed Altitude Reporting Facility
EDT Latitude Longitude Course Direction KTS MPH feet Rate Location/Type
Sat 08:05:23 PM 18.5167 -64.5833 317° Northwest 140 161 3,000  Level San Juan Center
Sat 08:06:24 PM 18.5167 -64.6167 270° West 160 184 3,900 793 Climbing San Juan Center
Sat 08:07:24 PM 18.5167 -64.6667 270° West 150 173 4,600 694 Climbing San Juan Center
Sat 08:08:25 PM 18.5167 -64.7000 270° West 160 184 5,300 694 Climbing San Juan Center
Sat 08:09:25 PM 18.5167 -64.7500 270° West 160 184 6,000 350 Climbing San Juan Center
Sat 08:10:25 PM 18.5000 -64.8000 251° West 170 196 6,000  Level San Juan Center
Sat 08:11:26 PM 18.5000 -64.8500 270° West 180 207 6,000  Level San Juan Center
Sat 08:12:26 PM 18.5000 -64.9167 270° West 180 207 6,000  Level San Juan Center
Sat 08:13:26 PM 18.5000 -64.9667 270° West 190 219 6,000  Level San Juan Center
Sat 08:14:27 PM 18.5000 -65.0167 270° West 190 219 6,000  Level San Juan Center
Sat 08:15:27 PM 18.5000 -65.0667 270° West 190 219 6,000  Level San Juan Center
Sat 08:16:28 PM 18.4833 -65.1167 251° West 190 219 6,000  Level San Juan Center
Sat 08:17:28 PM 18.4833 -65.1833 270° West 190 219 6,000  Level San Juan Center
Sat 08:18:28 PM 18.4833 -65.2333 270° West 190 219 6,000  Level San Juan Center
Sat 08:19:29 PM 18.4833 -65.2833 270° West 190 219 6,000  Level San Juan Center
Sat 08:20:29 PM 18.4667 -65.3333 251° West 180 207 6,000  Level San Juan Center
Sat 08:21:30 PM 18.4667 -65.3833 270° West 180 207 6,000  Level San Juan Center
Sat 08:22:30 PM 18.4667 -65.4333 270° West 170 196 6,000  Level San Juan Center
Sat 08:23:30 PM 18.4667 -65.4833 270° West 170 196 6,000 -99 Level San Juan Center
Sat 08:24:31 PM 18.4667 -65.5500 270° West 180 207 5,800 -397 Descending San Juan Center
Sat 08:25:31 PM 18.4500 -65.6000 251° West 180 207 5,200 -700 Descending San Juan Center
Sat 08:26:31 PM 18.4500 -65.6500 270° West 200 230 4,400 -645 Descending San Juan Center
Sat 08:27:32 PM 18.4333 -65.7000 251° West 190 219 3,900 -496 Descending San Juan Center
Sat 08:28:32 PM 18.4167 -65.7500 251° West 180 207 3,400 -694 Descending San Juan Center
Sat 08:29:33 PM 18.4000 -65.8167 255° West 200 230 2,500 -496 Descending San Juan Center
Sat 08:30:33 PM 18.3833 -65.8667 251° West 180 207 2,400 -300 Descending San Juan Center
Sat 08:31:33 PM 18.4000 -65.9167 289° West 170 196 1,900 -595 Descending San Juan Center
Sat 08:32:34 PM 18.4000 -65.9667 270° West 170 196 1,200 -545 Descending San Juan Center
Sat 08:33:34 PM 18.4000 -66.0000 270° West 150 173 800 -397 Descending San Juan Center
Sat 08:34:35 PM 18.4333 -66.0167 335° Northwest 140 161 400 -393 Descending San Juan Center

Login

Don't have an account? Register now (free) for customized features, flight alerts, and more!